createdAt,value
2023-03-25T10:16:32.325Z,64.50
2023-03-25T10:21:42.728Z,67.10
2023-03-25T10:26:50.710Z,67.30
2023-03-25T10:32:00.832Z,67.60
2023-03-25T10:37:07.969Z,68.20
2023-03-25T10:42:22.236Z,67.10
2023-03-25T10:47:33.419Z,65.70
2023-03-25T10:52:39.338Z,63.70
2023-03-25T10:57:44.613Z,62.50
2023-03-25T11:02:52.741Z,61.70
2023-03-25T11:08:08.770Z,61.00
2023-03-25T11:13:22.128Z,64.70
2023-03-25T11:18:32.841Z,63.60
2023-03-25T11:23:39.434Z,62.20
2023-03-25T11:28:46.883Z,61.30
2023-03-25T11:34:08.661Z,60.50
2023-03-25T11:39:20.426Z,59.60
2023-03-25T11:44:26.835Z,58.20
2023-03-25T11:49:38.620Z,58.30
2023-03-25T11:54:44.328Z,57.30
2023-03-25T11:59:50.598Z,56.40
2023-03-25T12:05:04.793Z,55.80
2023-03-25T12:10:19.528Z,55.90
2023-03-25T12:15:33.610Z,56.40
2023-03-25T12:20:49.162Z,57.00
2023-03-25T12:25:59.796Z,56.60
2023-03-25T12:31:11.629Z,57.00
2023-03-25T12:36:32.639Z,55.60
2023-03-25T12:41:40.734Z,55.00
2023-03-25T12:47:14.198Z,55.20
2023-03-25T12:52:25.225Z,54.40
2023-03-25T12:57:44.481Z,53.20
2023-03-25T13:03:33.465Z,52.60
2023-03-25T13:08:44.814Z,53.20
2023-03-25T13:13:50.207Z,53.30
2023-03-25T13:18:58.401Z,52.80
2023-03-25T13:24:09.121Z,53.10
2023-03-25T13:29:17.199Z,53.60
2023-03-25T13:34:27.161Z,53.70
2023-03-25T13:39:48.798Z,54.50
2023-03-25T13:44:54.171Z,55.20
2023-03-25T13:50:01.694Z,56.10
2023-03-25T13:55:14.728Z,59.80
2023-03-25T14:00:49.718Z,64.10
2023-03-25T14:06:35.188Z,67.70
2023-03-25T14:11:44.952Z,69.00
2023-03-25T14:16:52.186Z,70.80
2023-03-25T14:21:57.373Z,72.30
2023-03-25T14:27:07.819Z,72.40
2023-03-25T14:32:33.783Z,72.20
2023-03-25T14:37:39.096Z,72.40
2023-03-25T14:43:01.204Z,72.10
2023-03-25T14:48:22.905Z,72.80
2023-03-25T14:53:30.447Z,73.40
2023-03-25T14:58:40.594Z,75.40
2023-03-25T15:03:48.468Z,74.10
2023-03-25T15:08:56.709Z,72.00
2023-03-25T15:14:05.938Z,71.30
2023-03-25T15:19:13.298Z,70.60
2023-03-25T15:24:18.698Z,70.40
2023-03-25T15:29:43.731Z,70.90
2023-03-25T15:35:18.150Z,71.30
2023-03-25T15:40:33.777Z,71.10
2023-03-25T15:46:01.310Z,71.90
2023-03-25T15:51:15.827Z,72.20
2023-03-25T15:56:23.291Z,70.90
2023-03-25T16:01:32.766Z,69.70
2023-03-25T16:06:42.146Z,68.10
2023-03-25T16:11:47.778Z,67.30
2023-03-25T22:10:11.989Z,96.60
2023-03-25T22:15:17.364Z,95.50
2023-03-25T22:20:22.685Z,95.20
2023-03-25T22:25:30.523Z,94.80
2023-03-25T22:30:35.767Z,94.00
2023-03-25T22:35:41.508Z,93.20
2023-03-25T22:40:49.626Z,92.50
2023-03-25T22:45:55.157Z,91.80
2023-03-25T22:51:00.907Z,91.20
2023-03-25T22:56:10.111Z,90.70
2023-03-25T23:01:22.345Z,90.20
2023-03-25T23:06:27.929Z,89.80
2023-03-25T23:11:35.889Z,89.10
2023-03-25T23:16:42.064Z,88.40
2023-03-25T23:21:50.149Z,87.90
2023-03-25T23:26:58.102Z,87.70
2023-03-25T23:32:03.715Z,87.30
